createdAt,value
2019-05-10T00:00:07.007Z,90.58
2019-05-10T00:01:06.863Z,90.48
2019-05-10T00:02:06.853Z,90.62
2019-05-10T00:03:06.840Z,90.58
2019-05-10T00:04:06.829Z,90.79
2019-05-10T00:05:06.818Z,91.65
2019-05-10T00:06:06.868Z,91.55
2019-05-10T00:07:06.795Z,91.59
2019-05-10T00:08:06.787Z,91.75
2019-05-10T00:09:06.774Z,91.86
2019-05-10T00:10:06.762Z,92.16
2019-05-10T00:11:06.756Z,92.31
2019-05-10T00:12:06.803Z,92.78
2019-05-10T00:13:06.727Z,93.08
2019-05-10T00:14:06.716Z,92.51
2019-05-10T00:15:06.704Z,92.98
2019-05-10T00:16:06.693Z,92.98
2019-05-10T00:17:06.681Z,92.57
2019-05-10T00:18:06.730Z,92.88
2019-05-10T00:19:06.665Z,92.78
2019-05-10T00:20:06.654Z,92.88
2019-05-10T00:21:06.635Z,92.68
2019-05-10T00:22:06.623Z,92.68
2019-05-10T00:23:06.614Z,92.98
2019-05-10T00:24:06.711Z,92.98
2019-05-10T00:25:06.590Z,92.78
2019-05-10T00:26:06.578Z,92.16
2019-05-10T00:27:06.569Z,92.16
2019-05-10T00:28:06.561Z,91.75
2019-05-10T00:29:06.544Z,91.44
2019-05-10T00:30:06.602Z,91.82
2019-05-10T00:31:06.520Z,91.61
2019-05-10T00:32:06.512Z,91.96
2019-05-10T00:33:06.499Z,91.40
2019-05-10T00:34:06.491Z,91.65
2019-05-10T00:35:06.477Z,91.50
2019-05-10T00:36:06.567Z,91.24
2019-05-10T00:37:06.454Z,90.93
2019-05-10T00:38:06.441Z,90.83
2019-05-10T00:39:06.441Z,91.14
2019-05-10T00:40:06.464Z,90.73
2019-05-10T00:41:06.406Z,91.14
2019-05-10T00:42:06.490Z,91.24
2019-05-10T00:43:06.384Z,92.06
2019-05-10T00:44:06.374Z,91.44
2019-05-10T00:45:06.362Z,91.59
2019-05-10T00:46:06.351Z,90.97
2019-05-10T00:47:06.339Z,91.08
2019-05-10T00:48:06.402Z,91.49
2019-05-10T00:49:06.316Z,91.90
2019-05-10T00:50:06.304Z,91.84
2019-05-10T00:51:06.293Z,92.86
2019-05-10T00:52:06.282Z,93.07
2019-05-10T00:53:06.269Z,92.97
2019-05-10T00:54:06.368Z,92.80
2019-05-10T00:55:18.477Z,93.32
2019-05-10T00:56:07.233Z,93.42
2019-05-10T00:57:06.223Z,94.04
2019-05-10T00:58:06.211Z,94.34
2019-05-10T00:59:06.202Z,94.34
2019-05-10T01:00:06.265Z,93.99
2019-05-10T01:01:06.179Z,94.45
2019-05-10T01:02:06.166Z,93.99
2019-05-10T01:03:06.161Z,93.48
2019-05-10T01:04:06.142Z,92.76
2019-05-10T01:05:06.133Z,93.27
2019-05-10T01:06:06.210Z,92.72
2019-05-10T01:07:06.110Z,92.51
2019-05-10T01:08:06.097Z,92.82
2019-05-10T01:09:06.092Z,93.07
2019-05-10T01:10:06.075Z,92.72
2019-05-10T01:11:06.065Z,92.51
2019-05-10T01:12:06.120Z,92.00
2019-05-10T01:13:06.042Z,91.90
2019-05-10T01:14:06.030Z,91.96
2019-05-10T01:15:06.017Z,91.90
2019-05-10T01:16:06.005Z,91.55
2019-05-10T01:17:05.995Z,91.49
2019-05-10T01:18:06.053Z,91.49
2019-05-10T01:19:05.972Z,91.18
2019-05-10T01:20:05.960Z,91.38
2019-05-10T01:21:05.947Z,91.38
2019-05-10T01:22:05.936Z,91.69
2019-05-10T01:23:05.924Z,91.59
2019-05-10T01:24:05.997Z,91.80
2019-05-10T01:25:05.904Z,91.90
2019-05-10T01:26:05.890Z,91.90
2019-05-10T01:27:05.878Z,92.06
2019-05-10T01:28:05.909Z,92.00
2019-05-10T01:29:05.855Z,91.65
2019-05-10T01:30:05.913Z,91.65
2019-05-10T01:31:05.832Z,91.86
2019-05-10T01:32:05.821Z,91.69
2019-05-10T01:33:05.809Z,91.59
2019-05-10T01:34:05.800Z,91.69
2019-05-10T01:35:05.787Z,92.00
2019-05-10T01:36:05.844Z,91.69
2019-05-10T01:37:05.763Z,92.10
2019-05-10T01:38:05.752Z,91.96
2019-05-10T01:39:05.739Z,92.21
2019-05-10T01:40:05.728Z,92.51
2019-05-10T01:41:05.725Z,92.82
2019-05-10T01:42:05.768Z,92.47
2019-05-10T01:43:05.695Z,92.88
2019-05-10T01:44:05.745Z,92.57
2019-05-10T01:45:05.673Z,91.91
2019-05-10T01:46:05.659Z,91.91
2019-05-10T01:47:05.648Z,91.20
2019-05-10T01:48:05.710Z,90.54
2019-05-10T01:49:05.624Z,90.03
2019-05-10T01:50:05.617Z,89.51
2019-05-10T01:51:05.601Z,90.13
2019-05-10T01:52:05.591Z,89.68
2019-05-10T01:53:05.597Z,89.68
2019-05-10T01:54:05.638Z,89.51
2019-05-10T01:55:05.555Z,89.98
2019-05-10T01:56:05.548Z,89.92
2019-05-10T01:57:05.550Z,90.64
2019-05-10T01:58:05.521Z,89.92
2019-05-10T01:59:05.510Z,89.92
2019-05-10T02:00:05.575Z,89.89
2019-05-10T02:01:05.493Z,89.92
2019-05-10T02:02:05.485Z,90.03
2019-05-10T02:03:05.471Z,89.51
2019-05-10T02:04:05.455Z,89.42
2019-05-10T02:05:05.442Z,89.42
2019-05-10T02:06:05.512Z,89.42
2019-05-10T02:07:05.487Z,89.31
2019-05-10T02:08:05.426Z,90.03
2019-05-10T02:09:05.397Z,89.83
2019-05-10T02:10:05.391Z,89.92
2019-05-10T02:11:05.374Z,89.11
2019-05-10T02:12:05.432Z,88.45
2019-05-10T02:13:05.352Z,88.65
2019-05-10T02:14:05.341Z,88.65
2019-05-10T02:15:05.329Z,89.27
2019-05-10T02:16:05.317Z,88.41
2019-05-10T02:17:05.306Z,89.12
2019-05-10T02:18:05.369Z,88.65
2019-05-10T02:19:05.284Z,88.71
2019-05-10T02:20:05.273Z,88.96
2019-05-10T02:21:05.263Z,88.45
2019-05-10T02:22:05.253Z,88.96
2019-05-10T02:23:05.238Z,88.24
2019-05-10T02:24:05.293Z,88.76
2019-05-10T02:25:05.216Z,88.86
2019-05-10T02:26:09.364Z,88.86
2019-05-10T02:27:05.192Z,88.92
2019-05-10T02:28:05.185Z,89.03
2019-05-10T02:29:05.171Z,89.43
2019-05-10T02:30:05.232Z,89.33
2019-05-10T02:31:05.153Z,89.33
2019-05-10T02:32:05.138Z,90.09
2019-05-10T02:33:05.130Z,89.68
2019-05-10T02:34:05.115Z,89.78
2019-05-10T02:35:05.103Z,89.17
2019-05-10T02:36:05.159Z,89.33
2019-05-10T02:37:05.079Z,90.05
2019-05-10T02:38:05.069Z,89.23
2019-05-10T02:39:05.058Z,89.12
2019-05-10T02:40:05.045Z,89.17
2019-05-10T02:41:05.047Z,89.27
2019-05-10T02:42:05.086Z,89.37
2019-05-10T02:43:05.013Z,89.37
2019-05-10T02:44:05.002Z,89.37
2019-05-10T02:45:05.004Z,89.47
2019-05-10T02:46:04.978Z,89.27
2019-05-10T02:47:04.973Z,89.89
2019-05-10T02:48:05.022Z,89.89
2019-05-10T02:49:04.951Z,90.09
2019-05-10T02:50:04.932Z,89.27
2019-05-10T02:51:04.932Z,89.64
2019-05-10T02:52:04.910Z,89.06
2019-05-10T02:53:04.899Z,88.86
2019-05-10T02:54:04.950Z,88.86
2019-05-10T02:55:04.875Z,88.82
2019-05-10T02:56:04.872Z,88.45
2019-05-10T02:57:04.861Z,88.41
2019-05-10T02:58:04.845Z,88.31
2019-05-10T02:59:04.829Z,88.82
2019-05-10T03:00:04.889Z,88.45
2019-05-10T03:01:04.819Z,87.94
2019-05-10T03:02:04.796Z,88.56
2019-05-10T03:03:04.785Z,88.86
2019-05-10T03:04:04.773Z,89.06
2019-05-10T03:05:04.760Z,89.27
2019-05-10T03:06:04.820Z,89.37
2019-05-10T03:07:04.740Z,88.96
2019-05-10T03:08:04.730Z,89.47
2019-05-10T03:09:04.715Z,89.42
2019-05-10T03:10:04.706Z,89.21
2019-05-10T03:11:04.695Z,89.27
2019-05-10T03:12:04.745Z,88.65
2019-05-10T03:13:04.680Z,88.86
2019-05-10T03:14:04.663Z,88.96
2019-05-10T03:15:04.653Z,87.79
2019-05-10T03:16:04.639Z,87.29
2019-05-10T03:17:04.625Z,87.43
2019-05-10T03:18:04.696Z,87.79
2019-05-10T03:19:04.605Z,86.98
2019-05-10T03:20:04.591Z,87.70
2019-05-10T03:21:04.580Z,87.22
2019-05-10T03:22:04.569Z,87.38
2019-05-10T03:23:04.557Z,87.08
2019-05-10T03:24:04.613Z,87.08
2019-05-10T03:25:04.534Z,86.67
2019-05-10T03:26:04.522Z,86.88
2019-05-10T03:27:04.512Z,87.29
2019-05-10T03:28:04.501Z,87.38
2019-05-10T03:29:04.486Z,87.12
2019-05-10T03:30:04.791Z,87.59
2019-05-10T03:31:04.465Z,87.43
2019-05-10T03:32:04.454Z,87.73
2019-05-10T03:33:04.454Z,87.53
2019-05-10T03:34:04.467Z,87.32
2019-05-10T03:35:04.420Z,87.32
2019-05-10T03:36:04.475Z,87.43
2019-05-10T03:37:04.401Z,88.04
2019-05-10T03:38:04.390Z,88.45
2019-05-10T03:39:04.378Z,89.06
2019-05-10T03:40:04.363Z,88.65
2019-05-10T03:41:04.351Z,88.56
2019-05-10T03:42:04.413Z,88.76
2019-05-10T03:43:04.327Z,88.65
2019-05-10T03:44:04.328Z,88.45
2019-05-10T03:45:04.305Z,88.56
2019-05-10T03:46:04.295Z,87.63
2019-05-10T03:47:04.282Z,87.53
2019-05-10T03:48:04.333Z,87.02
2019-05-10T03:49:04.259Z,87.18
2019-05-10T03:50:04.247Z,86.98
2019-05-10T03:51:04.236Z,86.98
2019-05-10T03:52:04.228Z,87.29
2019-05-10T03:53:04.215Z,87.59
2019-05-10T03:54:04.267Z,87.29
2019-05-10T03:55:04.200Z,87.18
2019-05-10T03:56:04.203Z,87.18
2019-05-10T03:57:13.113Z,87.38
2019-05-10T03:58:05.166Z,86.88
2019-05-10T03:59:04.144Z,86.88
2019-05-10T04:00:04.199Z,87.18
2019-05-10T04:01:04.124Z,87.18
2019-05-10T04:02:04.113Z,87.29
2019-05-10T04:03:04.097Z,87.59
2019-05-10T04:04:04.091Z,87.29
2019-05-10T04:05:04.074Z,86.73
2019-05-10T04:06:04.125Z,87.24
2019-05-10T04:07:04.070Z,87.08
2019-05-10T04:08:04.040Z,87.08
2019-05-10T04:09:04.029Z,86.94
2019-05-10T04:10:04.137Z,87.14
2019-05-10T04:11:04.005Z,87.55
2019-05-10T04:12:04.056Z,87.45
2019-05-10T04:13:03.983Z,87.14
2019-05-10T04:14:03.982Z,87.04
2019-05-10T04:15:03.961Z,87.24
2019-05-10T04:16:03.952Z,86.32
2019-05-10T04:17:03.936Z,86.63
2019-05-10T04:18:03.991Z,86.53
2019-05-10T04:19:03.915Z,87.14
2019-05-10T04:20:03.909Z,86.53
2019-05-10T04:21:03.890Z,86.83
2019-05-10T04:22:03.880Z,86.63
2019-05-10T04:23:03.868Z,86.43
2019-05-10T04:24:03.925Z,86.59
2019-05-10T04:25:03.853Z,86.08
2019-05-10T04:26:03.836Z,85.36
2019-05-10T04:27:03.822Z,86.38
2019-05-10T04:28:03.813Z,86.08
2019-05-10T04:29:03.798Z,86.08
2019-05-10T04:30:03.876Z,86.29
2019-05-10T04:31:03.821Z,85.36
2019-05-10T04:32:03.777Z,85.26
2019-05-10T04:33:03.752Z,85.02
2019-05-10T04:34:03.755Z,84.00
2019-05-10T04:35:03.736Z,84.09
2019-05-10T04:36:03.784Z,83.34
2019-05-10T04:37:03.727Z,82.83
2019-05-10T04:38:03.699Z,83.34
2019-05-10T04:39:03.690Z,83.34
2019-05-10T04:40:03.671Z,83.34
2019-05-10T04:41:03.670Z,83.24
2019-05-10T04:42:03.709Z,82.42
2019-05-10T04:43:03.640Z,82.53
2019-05-10T04:44:03.623Z,82.73
2019-05-10T04:45:03.614Z,82.22
2019-05-10T04:46:03.602Z,82.93
2019-05-10T04:47:03.592Z,81.91
2019-05-10T04:48:03.646Z,82.32
2019-05-10T04:49:03.575Z,82.22
2019-05-10T04:50:03.566Z,82.93
2019-05-10T04:51:03.545Z,82.53
2019-05-10T04:52:03.532Z,82.32
2019-05-10T04:53:03.522Z,83.04
2019-05-10T04:54:03.569Z,82.73
2019-05-10T04:55:03.497Z,82.83
2019-05-10T04:56:03.490Z,82.93
2019-05-10T04:57:03.483Z,82.53
2019-05-10T04:58:03.464Z,82.63
2019-05-10T04:59:03.453Z,82.63
2019-05-10T05:00:03.512Z,82.73
2019-05-10T05:01:03.431Z,82.32
2019-05-10T05:02:03.423Z,82.93
2019-05-10T05:03:03.410Z,82.56
2019-05-10T05:04:03.439Z,82.46
2019-05-10T05:05:03.393Z,82.77
2019-05-10T05:06:03.436Z,83.07
2019-05-10T05:07:03.369Z,82.56
2019-05-10T05:08:06.320Z,82.77
2019-05-10T05:09:03.338Z,83.22
2019-05-10T05:10:03.381Z,83.32
2019-05-10T05:11:03.320Z,83.11
2019-05-10T05:12:03.375Z,83.22
2019-05-10T05:13:03.301Z,83.11
2019-05-10T05:14:03.291Z,83.56
2019-05-10T05:15:03.269Z,84.24
2019-05-10T05:16:03.257Z,84.95
2019-05-10T05:17:03.245Z,84.79
2019-05-10T05:18:03.298Z,84.48
2019-05-10T05:19:03.222Z,84.89
2019-05-10T05:20:03.211Z,85.20
2019-05-10T05:21:03.200Z,85.44
2019-05-10T05:22:03.190Z,85.24
2019-05-10T05:23:03.178Z,84.89
2019-05-10T05:24:03.247Z,84.89
2019-05-10T05:25:03.779Z,84.48
2019-05-10T05:26:03.142Z,83.62
2019-05-10T05:27:03.206Z,83.07
2019-05-10T05:28:07.910Z,83.28
2019-05-10T05:29:04.170Z,83.48
2019-05-10T05:30:03.096Z,82.53
2019-05-10T05:31:03.092Z,81.30
2019-05-10T05:32:03.633Z,80.96
2019-05-10T05:33:03.064Z,81.16
2019-05-10T05:34:04.982Z,78.98
2019-05-10T05:35:03.105Z,78.67
2019-05-10T05:36:03.028Z,78.02
2019-05-10T05:37:03.034Z,77.34
2019-05-10T05:38:03.005Z,76.39
2019-05-10T05:39:03.011Z,76.46
2019-05-10T05:40:02.982Z,74.99
2019-05-10T05:41:03.034Z,74.45
2019-05-10T05:42:02.960Z,73.71
2019-05-10T05:43:08.120Z,72.21
2019-05-10T05:44:03.944Z,71.60
2019-05-10T05:45:02.985Z,70.68
2019-05-10T05:46:02.912Z,70.65
2019-05-10T05:47:04.817Z,70.72
2019-05-10T05:48:02.891Z,69.57
2019-05-10T05:49:02.880Z,68.66
2019-05-10T05:50:02.868Z,67.97
2019-05-10T05:51:02.879Z,68.82
2019-05-10T05:52:02.851Z,68.28
2019-05-10T05:53:02.900Z,69.09
2019-05-10T05:54:04.217Z,67.84
2019-05-10T05:55:02.811Z,67.24
2019-05-10T05:56:08.879Z,67.16
2019-05-10T05:57:03.788Z,67.27
2019-05-10T05:58:05.000Z,66.93
2019-05-10T05:59:02.823Z,67.81
2019-05-10T06:00:03.951Z,67.10
2019-05-10T06:01:02.745Z,65.88
2019-05-10T06:02:07.373Z,66.05
2019-05-10T06:03:03.718Z,66.46
2019-05-10T06:04:06.375Z,66.02
2019-05-10T06:05:03.943Z,67.83
2019-05-10T06:06:02.685Z,66.99
2019-05-10T06:07:02.672Z,66.22
2019-05-10T06:08:02.722Z,65.51
2019-05-10T06:09:02.656Z,66.42
2019-05-10T06:10:02.636Z,65.48
2019-05-10T06:11:02.687Z,65.78
2019-05-10T06:12:07.367Z,64.97
2019-05-10T06:13:03.602Z,65.10
2019-05-10T06:14:09.991Z,65.00
2019-05-10T06:15:03.579Z,65.00
2019-05-10T06:16:06.454Z,65.27
2019-05-10T06:17:03.621Z,64.84
2019-05-10T06:18:03.579Z,64.23
2019-05-10T06:19:03.536Z,64.03
2019-05-10T06:20:05.931Z,63.18
2019-05-10T06:21:02.512Z,63.11
2019-05-10T06:22:04.781Z,63.32
2019-05-10T06:23:07.130Z,63.11
2019-05-10T06:24:07.375Z,63.62
2019-05-10T06:25:03.483Z,62.78
2019-05-10T06:26:02.453Z,62.17
2019-05-10T06:27:03.513Z,63.49
2019-05-10T06:28:02.431Z,62.54
2019-05-10T06:29:04.497Z,62.85
2019-05-10T06:30:02.407Z,62.54
2019-05-10T06:31:02.399Z,62.68
2019-05-10T06:32:02.390Z,62.68
2019-05-10T06:33:12.129Z,62.57
2019-05-10T06:34:03.423Z,62.34
2019-05-10T06:35:02.506Z,62.57
2019-05-10T06:36:02.338Z,63.26
2019-05-10T06:37:02.331Z,62.52
2019-05-10T06:38:02.319Z,61.53
2019-05-10T06:39:02.305Z,62.24
2019-05-10T06:40:02.386Z,61.94
2019-05-10T06:41:02.289Z,61.74
2019-05-10T06:42:02.274Z,61.63
2019-05-10T06:43:06.791Z,61.10
2019-05-10T06:44:03.251Z,60.79
2019-05-10T06:45:05.105Z,61.07
2019-05-10T06:46:03.290Z,61.07
2019-05-10T06:47:08.048Z,60.33
2019-05-10T06:48:03.201Z,60.36
2019-05-10T06:49:08.300Z,59.58
2019-05-10T06:50:03.181Z,60.35
2019-05-10T06:51:02.865Z,59.68
2019-05-10T06:52:03.216Z,60.58
2019-05-10T06:53:07.559Z,59.63
2019-05-10T06:54:03.141Z,60.14
2019-05-10T06:55:02.125Z,61.41
2019-05-10T06:56:02.108Z,61.72
2019-05-10T06:57:02.135Z,61.91
2019-05-10T06:58:02.148Z,60.91
2019-05-10T06:59:13.038Z,59.56
2019-05-10T07:00:06.419Z,57.81
2019-05-10T07:01:02.053Z,56.34
2019-05-10T07:02:02.042Z,56.01
2019-05-10T07:03:02.030Z,56.79
2019-05-10T07:04:02.079Z,56.86
2019-05-10T07:05:02.012Z,53.80
2019-05-10T07:06:02.000Z,55.24
2019-05-10T07:07:01.986Z,55.47
2019-05-10T07:08:14.038Z,55.95
2019-05-10T07:09:03.027Z,56.31
2019-05-10T07:10:10.323Z,55.68
2019-05-10T07:11:02.938Z,55.52
2019-05-10T07:12:01.931Z,55.17
2019-05-10T07:13:03.555Z,57.81
2019-05-10T07:14:01.901Z,59.43
2019-05-10T07:15:03.227Z,55.98
2019-05-10T07:16:01.882Z,56.92
2019-05-10T07:17:02.978Z,58.29
2019-05-10T07:18:01.855Z,57.32
2019-05-10T07:19:02.287Z,55.77
2019-05-10T07:20:01.833Z,55.93
2019-05-10T07:21:06.697Z,53.38
2019-05-10T07:22:02.807Z,55.65
2019-05-10T07:23:06.107Z,53.93
2019-05-10T07:24:02.786Z,52.49
2019-05-10T07:25:04.526Z,52.39
2019-05-10T07:26:01.764Z,52.36
2019-05-10T07:27:02.850Z,51.15
2019-05-10T07:28:01.739Z,50.55
2019-05-10T07:29:01.728Z,50.98
2019-05-10T07:30:01.720Z,51.25
2019-05-10T07:31:01.704Z,51.33
2019-05-10T07:32:01.693Z,50.80
2019-05-10T07:33:02.048Z,50.82
2019-05-10T07:34:01.673Z,50.30
2019-05-10T07:35:01.667Z,50.85
2019-05-10T07:36:01.656Z,48.92
2019-05-10T07:37:02.055Z,49.24
2019-05-10T07:38:01.631Z,48.90
2019-05-10T07:39:02.688Z,49.22
2019-05-10T07:40:03.505Z,50.55
2019-05-10T07:41:01.590Z,51.81
2019-05-10T07:42:06.664Z,50.65
2019-05-10T07:43:02.566Z,51.10
2019-05-10T07:44:08.094Z,50.78
2019-05-10T07:45:02.607Z,50.07
2019-05-10T07:46:06.392Z,51.35
2019-05-10T07:47:02.523Z,52.46
2019-05-10T07:48:02.342Z,53.88
2019-05-10T07:49:02.497Z,52.56
2019-05-10T07:50:03.911Z,54.03
2019-05-10T07:51:02.536Z,55.27
2019-05-10T07:52:03.089Z,55.70
2019-05-10T07:53:01.453Z,56.23
2019-05-10T07:54:04.681Z,56.05
2019-05-10T07:55:01.443Z,56.97
2019-05-10T07:56:06.177Z,57.78
2019-05-10T07:57:02.470Z,57.98
2019-05-10T07:58:05.019Z,57.17
2019-05-10T07:59:02.389Z,57.71
2019-05-10T08:00:03.616Z,57.84
2019-05-10T08:01:01.366Z,58.65
2019-05-10T08:02:05.770Z,58.95
2019-05-10T08:03:15.134Z,59.46
2019-05-10T08:04:02.326Z,60.60
2019-05-10T08:05:04.949Z,59.99
2019-05-10T08:06:02.306Z,59.48
2019-05-10T08:07:01.293Z,59.08
2019-05-10T08:08:01.283Z,59.36
2019-05-10T08:09:06.295Z,59.46
2019-05-10T08:10:04.745Z,58.45
2019-05-10T08:11:01.251Z,58.31
2019-05-10T08:12:05.144Z,57.86
2019-05-10T08:13:03.530Z,57.96
2019-05-10T08:14:06.075Z,57.86
2019-05-10T08:15:02.265Z,56.36
2019-05-10T08:16:05.351Z,57.28
2019-05-10T08:17:06.093Z,58.11
2019-05-10T08:18:01.180Z,58.01
2019-05-10T08:19:02.401Z,58.24
2019-05-10T08:20:01.145Z,59.66
2019-05-10T08:21:03.371Z,60.40
2019-05-10T08:22:04.462Z,60.91
2019-05-10T08:23:02.816Z,60.83
2019-05-10T08:24:05.568Z,62.05
2019-05-10T08:25:02.376Z,61.65
2019-05-10T08:26:04.463Z,61.14
2019-05-10T08:27:11.221Z,61.95
2019-05-10T08:28:05.318Z,62.16
2019-05-10T08:29:02.082Z,62.26
2019-05-10T08:30:25.510Z,61.55
2019-05-10T08:31:02.441Z,60.40
2019-05-10T08:32:03.015Z,59.79
2019-05-10T08:33:09.465Z,59.79
2019-05-10T08:34:02.267Z,59.86
2019-05-10T08:35:05.073Z,59.46
2019-05-10T08:36:04.975Z,58.24
2019-05-10T08:37:02.576Z,58.65
2019-05-10T08:38:02.291Z,59.12
2019-05-10T08:39:10.021Z,57.58
2019-05-10T08:40:03.197Z,58.47
2019-05-10T08:41:02.695Z,56.28
2019-05-10T08:42:09.024Z,55.09
2019-05-10T08:43:07.165Z,55.02
2019-05-10T08:44:04.810Z,55.68
2019-05-10T08:45:05.403Z,56.48
2019-05-10T08:46:02.610Z,56.01
2019-05-10T08:47:02.299Z,56.31
2019-05-10T08:48:06.920Z,56.10
2019-05-10T08:49:02.232Z,56.01
2019-05-10T08:50:18.712Z,55.85
2019-05-10T08:51:04.022Z,55.65
2019-05-10T08:52:02.891Z,56.26
2019-05-10T08:53:02.340Z,56.36
2019-05-10T08:54:01.933Z,55.24
2019-05-10T08:55:02.700Z,56.36
2019-05-10T08:56:02.274Z,56.26
2019-05-10T08:57:05.227Z,57.27
2019-05-10T08:58:02.905Z,55.98
2019-05-10T08:59:03.686Z,56.61
2019-05-10T09:00:07.118Z,56.01
2019-05-10T09:01:15.854Z,55.12
2019-05-10T09:02:02.262Z,55.96
2019-05-10T09:03:09.145Z,55.76
2019-05-10T09:04:06.602Z,54.13
2019-05-10T09:05:02.640Z,55.25
2019-05-10T09:06:03.461Z,55.85
2019-05-10T09:07:02.819Z,55.93
2019-05-10T09:08:04.855Z,55.50
2019-05-10T09:09:03.579Z,55.70
2019-05-10T09:10:02.224Z,54.97
2019-05-10T09:11:05.874Z,53.96
2019-05-10T09:12:04.199Z,54.03
2019-05-10T09:13:03.235Z,52.92
2019-05-10T09:14:00.528Z,53.93
2019-05-10T09:15:06.377Z,53.93
2019-05-10T09:16:02.462Z,54.56
2019-05-10T09:17:04.202Z,54.05
2019-05-10T09:18:04.144Z,55.65
2019-05-10T09:19:02.581Z,55.17
2019-05-10T09:20:02.672Z,55.10
2019-05-10T09:21:08.543Z,55.22
2019-05-10T09:22:02.045Z,55.30
2019-05-10T09:23:02.425Z,55.30
2019-05-10T09:24:03.420Z,55.40
2019-05-10T09:25:01.855Z,55.68
2019-05-10T09:26:03.655Z,54.97
2019-05-10T09:27:01.821Z,56.26
2019-05-10T09:28:02.305Z,55.75
2019-05-10T09:29:01.743Z,55.02
2019-05-10T09:30:02.734Z,55.73
2019-05-10T09:31:15.249Z,54.49
2019-05-10T09:32:06.196Z,53.93
2019-05-10T09:33:08.443Z,52.47
2019-05-10T09:34:02.506Z,51.08
2019-05-10T09:35:07.546Z,52.69
2019-05-10T09:36:02.936Z,50.65
2019-05-10T09:37:02.779Z,51.50
2019-05-10T09:38:01.965Z,52.16
2019-05-10T09:39:00.249Z,50.88
2019-05-10T09:40:05.460Z,48.52
2019-05-10T09:41:02.498Z,48.85
2019-05-10T09:42:06.180Z,49.68
2019-05-10T09:43:07.437Z,49.87
2019-05-10T09:44:02.990Z,48.52
2019-05-10T09:45:02.890Z,48.44
2019-05-10T09:46:02.530Z,49.87
2019-05-10T09:47:01.906Z,49.65
2019-05-10T09:48:02.475Z,50.57
2019-05-10T09:49:05.937Z,51.35
2019-05-10T09:50:02.279Z,52.89
2019-05-10T09:51:03.417Z,54.05
2019-05-10T09:52:04.496Z,53.65
2019-05-10T09:53:01.155Z,54.86
2019-05-10T09:54:00.496Z,55.67
2019-05-10T09:55:04.073Z,55.34
2019-05-10T09:56:03.119Z,53.67
2019-05-10T09:57:00.042Z,53.58
2019-05-10T09:58:00.030Z,53.58
2019-05-10T09:59:00.085Z,53.32
2019-05-10T10:00:00.007Z,50.91
2019-05-10T10:01:14.036Z,49.18
2019-05-10T10:02:05.110Z,47.12
2019-05-10T10:03:01.846Z,47.67
2019-05-10T10:04:02.088Z,47.83
2019-05-10T10:05:00.019Z,45.60
2019-05-10T10:06:05.487Z,44.06
2019-05-10T10:07:00.926Z,46.01
2019-05-10T10:08:03.725Z,43.49
2019-05-10T10:09:01.170Z,43.49
2019-05-10T10:09:59.894Z,44.06
2019-05-10T10:11:10.156Z,47.44
2019-05-10T10:12:03.024Z,48.66
2019-05-10T10:13:08.476Z,51.71
2019-05-10T10:14:02.171Z,51.76
2019-05-10T10:14:59.838Z,51.91
2019-05-10T10:16:04.057Z,52.82
2019-05-10T10:17:03.253Z,54.96
2019-05-10T10:17:59.805Z,55.29
2019-05-10T10:18:59.792Z,56.25
2019-05-10T10:19:59.781Z,55.82
2019-05-10T10:20:59.770Z,54.08
2019-05-10T10:21:59.761Z,50.05
2019-05-10T10:22:59.810Z,49.27
2019-05-10T10:24:00.377Z,49.65
2019-05-10T10:25:00.587Z,49.87
2019-05-10T10:25:59.713Z,50.12
2019-05-10T10:26:59.705Z,51.68
2019-05-10T10:27:59.694Z,52.94
2019-05-10T10:29:00.239Z,53.58
2019-05-10T10:29:59.668Z,53.17
2019-05-10T10:31:05.141Z,53.09
2019-05-10T10:32:00.645Z,52.64
2019-05-10T10:32:59.634Z,50.48
2019-05-10T10:34:02.650Z,48.64
2019-05-10T10:34:59.671Z,49.30
2019-05-10T10:36:04.944Z,48.43
2019-05-10T10:37:00.589Z,48.77
2019-05-10T10:38:03.106Z,50.27
2019-05-10T10:39:00.567Z,52.36
2019-05-10T10:40:05.188Z,54.10
2019-05-10T10:41:00.608Z,52.87
2019-05-10T10:42:02.363Z,53.88
2019-05-10T10:43:00.551Z,53.58
2019-05-10T10:43:59.520Z,52.14
2019-05-10T10:44:59.498Z,51.14
2019-05-10T10:45:59.491Z,47.36
2019-05-10T10:46:59.545Z,47.50
2019-05-10T10:48:02.425Z,47.11
2019-05-10T10:49:00.455Z,46.91
2019-05-10T10:50:03.015Z,46.35
2019-05-10T10:51:00.428Z,49.50
2019-05-10T10:51:59.419Z,49.50
2019-05-10T10:52:59.471Z,47.39
2019-05-10T10:53:59.400Z,47.32
2019-05-10T10:54:59.385Z,46.23
2019-05-10T10:56:03.499Z,48.92
2019-05-10T10:56:59.698Z,49.59
2019-05-10T10:57:59.351Z,48.17
2019-05-10T10:58:59.406Z,47.89
2019-05-10T10:59:59.564Z,47.62
2019-05-10T11:00:59.318Z,48.32
2019-05-10T11:02:27.914Z,51.20
2019-05-10T11:03:00.295Z,52.04
2019-05-10T11:04:03.525Z,52.94
2019-05-10T11:05:00.389Z,52.34
2019-05-10T11:05:59.263Z,52.84
2019-05-10T11:07:09.885Z,52.84
2019-05-10T11:08:01.054Z,52.74
2019-05-10T11:09:01.606Z,53.72
2019-05-10T11:10:13.264Z,52.51
2019-05-10T11:11:00.628Z,51.91
2019-05-10T11:12:00.928Z,51.56
2019-05-10T11:13:04.552Z,53.40
2019-05-10T11:14:06.960Z,54.43
2019-05-10T11:15:01.082Z,54.13
2019-05-10T11:16:09.945Z,54.66
2019-05-10T11:17:01.150Z,55.34
2019-05-10T11:18:00.488Z,54.94
2019-05-10T11:19:03.890Z,55.11
2019-05-10T11:20:00.612Z,54.71
2019-05-10T11:21:01.862Z,53.72
2019-05-10T11:22:04.356Z,55.04
2019-05-10T11:23:00.311Z,53.83
2019-05-10T11:24:01.272Z,55.62
2019-05-10T11:25:04.028Z,54.43
2019-05-10T11:26:01.329Z,55.65
2019-05-10T11:27:01.106Z,55.19
2019-05-10T11:28:01.604Z,54.68
2019-05-10T11:29:01.150Z,54.81
2019-05-10T11:30:00.899Z,52.79
2019-05-10T11:31:01.134Z,54.13
2019-05-10T11:32:12.109Z,54.43
2019-05-10T11:33:00.487Z,55.19
2019-05-10T11:34:01.532Z,53.75
2019-05-10T11:34:59.003Z,53.58
2019-05-10T11:36:03.929Z,54.05
2019-05-10T11:36:59.907Z,53.92
2019-05-10T11:38:01.026Z,52.09
2019-05-10T11:38:58.957Z,52.97
2019-05-10T11:40:01.479Z,54.36
2019-05-10T11:40:58.930Z,53.75
2019-05-10T11:42:05.204Z,53.85
2019-05-10T11:43:01.475Z,54.08
2019-05-10T11:44:07.892Z,54.79
2019-05-10T11:45:00.773Z,55.34
2019-05-10T11:45:58.808Z,55.34
2019-05-10T11:47:01.343Z,56.12
2019-05-10T11:48:01.568Z,55.32
2019-05-10T11:48:58.771Z,55.34
2019-05-10T11:50:03.632Z,55.47
2019-05-10T11:50:59.749Z,56.40
2019-05-10T11:51:59.463Z,56.81
2019-05-10T11:53:00.902Z,57.01
2019-05-10T11:55:01.262Z,57.04
2019-05-10T11:55:58.692Z,57.37
2019-05-10T11:57:06.582Z,55.88
2019-05-10T11:58:03.026Z,56.48
2019-05-10T11:59:02.582Z,56.92
2019-05-10T11:59:58.647Z,56.31
2019-05-10T12:01:00.339Z,56.41
2019-05-10T12:02:02.368Z,57.22
2019-05-10T12:03:08.873Z,57.53
2019-05-10T12:04:04.713Z,57.02
2019-05-10T12:05:03.615Z,58.34
2019-05-10T12:06:06.184Z,57.65
2019-05-10T12:07:01.777Z,57.42
2019-05-10T12:08:01.962Z,56.18
2019-05-10T12:09:02.078Z,55.69
2019-05-10T12:10:07.595Z,55.47
2019-05-10T12:11:12.348Z,55.57
2019-05-10T12:12:03.434Z,55.29
2019-05-10T12:13:08.626Z,54.05
2019-05-10T12:14:02.442Z,55.26
2019-05-10T12:14:58.509Z,55.66
2019-05-10T12:15:58.530Z,55.01
2019-05-10T12:16:58.451Z,55.11
2019-05-10T12:17:59.707Z,54.94
2019-05-10T12:19:06.519Z,52.26
2019-05-10T12:20:02.260Z,48.85
2019-05-10T12:22:03.495Z,49.55
2019-05-10T12:23:03.375Z,48.57
2019-05-10T12:24:10.467Z,51.01
2019-05-10T12:25:20.620Z,50.56
2019-05-10T12:26:04.742Z,58.33
2019-05-10T12:26:05.557Z,52.06
2019-05-10T12:27:13.356Z,49.33
2019-05-10T12:27:17.298Z,46.77
2019-05-10T12:28:01.235Z,46.93
2019-05-10T12:29:02.697Z,46.67
2019-05-10T12:30:00.749Z,47.25
2019-05-10T12:30:58.307Z,49.48
2019-05-10T12:31:58.285Z,50.76
2019-05-10T12:33:05.872Z,53.02
2019-05-10T12:34:02.557Z,52.14
2019-05-10T12:35:01.309Z,51.66
2019-05-10T12:35:58.295Z,52.06
2019-05-10T12:37:03.849Z,52.34
2019-05-10T12:38:01.659Z,52.06
2019-05-10T12:38:58.971Z,52.87
2019-05-10T12:40:06.167Z,53.96
2019-05-10T12:41:01.281Z,53.25
2019-05-10T12:41:58.170Z,53.45
2019-05-10T12:43:00.546Z,52.72
2019-05-10T12:44:04.088Z,52.14
2019-05-10T12:45:01.158Z,53.45
2019-05-10T12:45:58.130Z,52.31
2019-05-10T12:46:58.145Z,53.72
2019-05-10T12:47:58.115Z,53.67
2019-05-10T12:48:58.090Z,53.78
2019-05-10T12:50:01.980Z,53.88
2019-05-10T12:51:05.028Z,54.08
2019-05-10T12:51:59.055Z,53.47